Terminal Aerodrome Forecast
Issued by NWS Sterling, VA

Home | Current Version | Previous Version | Text Only | Print | Product List | Glossary On
Versions: 1 2 3 4 5 6 7 8 9 10 11 12 13 14 15
000
FTUS41 KLWX 041725
TAFCHO
TAF
KCHO 041725Z 0418/0518 21006KT P6SM SCT050
     FM042100 23007KT P6SM VCTS SCT050CB
     FM042300 24004KT P6SM VCTS BKN050CB
     FM050000 VRB03KT P6SM BKN050
     FM050200 00000KT P6SM SCT050
     FM051400 30006KT P6SM FEW250=

USA.gov is the U.S. government's official web portal to all federal, state and local government web resources and services.